< < Back
Terminal Aerodrome Forecast


Current Version              Previous Versions:   1  2  3  4  5  6  7  8  9  

Terminal Aerodrome Forecast

870
FTUS42 KFFC 191000 AAA
TAFPDK
TAF AMD
KPDK 191009Z 1910/2006 07003KT P6SM SCT070
     FM191200 08004KT 6SM BR BKN015
     FM191400 09005KT P6SM SCT035
     FM191600 10008KT P6SM SCT045
     FM200100 08005KT P6SM FEW060=

Latest METAR

777
SAUS70 KWBC 191200 RRO
MTRPDK
METAR KPDK 191153Z 08003KT 5SM BR CLR 19/18 A3007 RMK AO2 SLP169
T01940178 10206 20194 53013


USA.gov is the U.S. government's official web portal to all federal, state and local government web resources and services.